Time;durP1;ratioP1;P1;durP2;ratioP2;P2;SDS_P1;SDS_P2;PMS_P1;PMS_P2;Temp;Humidity;BMP_temperature;BMP_pressure;BME280_temperature;BME280_humidity;BME280_pressure;Samples;Min_cycle;Max_cycle;Signal;HPM_P1;HPM_P2
2022/03/22 00:01:50;;;;;;;10.67;8.83;;;;;;;2.36;100.00;97646.19;5052232;27;103661;-60
2022/03/22 00:04:17;;;;;;;12.97;8.77;;;;;;;2.45;100.00;97634.69;5053020;27;102570;-60
2022/03/22 00:06:44;;;;;;;11.50;9.30;;;;;;;2.22;100.00;97643.44;5053682;27;101801;-59
2022/03/22 00:09:12;;;;;;;12.40;9.73;;;;;;;2.17;100.00;97645.75;5052268;27;105056;-59
2022/03/22 00:11:40;;;;;;;12.43;9.30;;;;;;;2.10;100.00;97645.63;5051248;27;105290;-59
2022/03/22 00:14:09;;;;;;;10.60;8.80;;;;;;;1.90;100.00;97643.50;5052140;27;101928;-59
2022/03/22 00:16:36;;;;;;;11.77;9.03;;;;;;;2.17;100.00;97643.94;5051730;27;104350;-59
2022/03/22 00:19:06;;;;;;;10.27;8.87;;;;;;;2.15;100.00;97645.09;5054751;27;106286;-59
2022/03/22 00:21:35;;;;;;;11.43;8.80;;;;;;;1.96;100.00;97648.06;5051939;27;106028;-59
2022/03/22 00:24:02;;;;;;;9.97;8.30;;;;;;;1.95;100.00;97647.28;5051359;27;105310;-59
2022/03/22 00:26:29;;;;;;;11.00;8.80;;;;;;;1.76;100.00;97647.63;5051549;27;101908;-59
2022/03/22 00:28:57;;;;;;;12.70;9.07;;;;;;;1.88;100.00;97646.31;5051764;27;103685;-59
2022/03/22 00:31:25;;;;;;;14.37;10.17;;;;;;;2.06;100.00;97638.22;5052462;27;102985;-59
2022/03/22 00:33:52;;;;;;;12.70;9.43;;;;;;;1.95;100.00;97636.78;5050886;27;101928;-59
2022/03/22 00:36:22;;;;;;;13.27;9.83;;;;;;;2.13;100.00;97644.47;5051862;27;103597;-59
2022/03/22 00:38:49;;;;;;;13.30;11.20;;;;;;;2.24;100.00;97641.50;5052303;27;103106;-59
2022/03/22 00:41:16;;;;;;;14.93;11.30;;;;;;;2.30;100.00;97638.19;5054000;27;101892;-59
2022/03/22 00:43:44;;;;;;;13.10;11.00;;;;;;;2.33;100.00;97645.72;5050217;27;105969;-59
2022/03/22 00:46:11;;;;;;;15.37;10.20;;;;;;;2.19;100.00;97643.78;5050491;27;101827;-59
2022/03/22 00:48:40;;;;;;;15.97;10.93;;;;;;;2.36;100.00;97645.38;5050525;27;104951;-60
2022/03/22 00:51:09;;;;;;;12.83;10.03;;;;;;;2.27;100.00;97646.38;5049862;27;104199;-59
2022/03/22 00:53:38;;;;;;;14.67;10.57;;;;;;;2.23;100.00;97651.16;5050178;27;102001;-60
2022/03/22 00:56:07;;;;;;;13.90;10.87;;;;;;;1.78;100.00;97650.91;5049415;27;105020;-59
2022/03/22 00:58:34;;;;;;;13.07;9.60;;;;;;;1.75;100.00;97648.59;5048607;27;103928;-59
2022/03/22 01:01:01;;;;;;;12.93;9.90;;;;;;;1.64;100.00;97654.19;5049908;27;101892;-59
2022/03/22 01:03:29;;;;;;;12.10;10.00;;;;;;;1.37;100.00;97656.31;5053073;27;104818;-59
2022/03/22 01:05:59;;;;;;;12.13;9.33;;;;;;;1.27;100.00;97666.13;5049030;27;101960;-59
2022/03/22 01:08:29;;;;;;;11.40;9.23;;;;;;;1.19;100.00;97660.84;5050041;27;104089;-59
2022/03/22 01:10:57;;;;;;;12.37;9.53;;;;;;;0.82;100.00;97653.41;5049269;27;105785;-59
2022/03/22 01:13:27;;;;;;;10.03;8.93;;;;;;;0.87;100.00;97659.00;5050056;27;102141;-60
2022/03/22 01:15:54;;;;;;;11.80;9.53;;;;;;;0.76;100.00;97650.59;5049356;27;105445;-59
2022/03/22 01:18:21;;;;;;;10.20;8.97;;;;;;;0.67;100.00;97654.97;5050740;27;103098;-59
2022/03/22 01:20:50;;;;;;;12.97;9.20;;;;;;;0.73;100.00;97656.16;5049773;27;101904;-60
2022/03/22 01:23:19;;;;;;;12.80;8.93;;;;;;;0.51;100.00;97641.84;5053952;27;102837;-59
2022/03/22 01:25:46;;;;;;;13.43;9.70;;;;;;;0.42;100.00;97631.50;5049791;27;101997;-60
2022/03/22 01:28:15;;;;;;;11.37;9.27;;;;;;;0.43;100.00;97635.75;5049321;27;105273;-59
2022/03/22 01:30:42;;;;;;;12.57;9.83;;;;;;;0.72;100.00;97629.16;5049054;27;105434;-59
2022/03/22 01:33:11;;;;;;;11.90;9.50;;;;;;;0.83;100.00;97625.44;5051155;27;101657;-59
2022/03/22 01:35:39;;;;;;;11.00;8.83;;;;;;;0.78;100.00;97622.47;5049521;27;105702;-59
2022/03/22 01:38:06;;;;;;;10.83;8.83;;;;;;;0.83;100.00;97615.75;5049960;27;102961;-59
2022/03/22 01:40:33;;;;;;;10.23;9.13;;;;;;;0.76;100.00;97613.94;5051047;27;101810;-60
2022/03/22 01:43:00;;;;;;;10.53;8.73;;;;;;;0.78;100.00;97617.25;5050822;27;102434;-59
2022/03/22 01:45:30;;;;;;;10.73;8.83;;;;;;;0.92;100.00;97621.84;5053703;27;102639;-59
2022/03/22 01:47:59;;;;;;;11.47;8.83;;;;;;;0.69;100.00;97623.41;5050666;27;102311;-59
2022/03/22 01:50:27;;;;;;;13.03;9.03;;;;;;;0.81;100.00;97609.06;5048423;27;105349;-59
2022/03/22 01:52:56;;;;;;;13.20;9.40;;;;;;;0.37;100.00;97612.84;5049218;27;101761;-59
2022/03/22 01:55:23;;;;;;;11.90;9.23;;;;;;;0.60;100.00;97608.69;4995284;27;1557876;-59
2022/03/22 01:57:51;;;;;;;11.20;9.47;;;;;;;0.46;100.00;97612.72;5051441;27;103049;-59
2022/03/22 02:00:22;;;;;;;11.37;9.57;;;;;;;0.35;100.00;97620.03;5050106;27;101967;-59
2022/03/22 02:05:56;;;;;;;12.43;9.53;;;;;;;0.42;100.00;97614.00;5049650;27;105467;-59
2022/03/22 02:08:26;;;;;;;13.87;9.10;;;;;;;0.46;100.00;97617.13;5053531;27;101766;-59
2022/03/22 02:10:55;;;;;;;12.10;9.57;;;;;;;0.28;100.00;97608.56;5049503;27;105778;-59
2022/03/22 02:13:22;;;;;;;11.70;9.73;;;;;;;0.30;100.00;97612.66;5051021;27;101948;-60
2022/03/22 02:15:52;;;;;;;13.37;9.27;;;;;;;0.01;100.00;97619.22;5051212;27;103033;-59
2022/03/22 02:18:20;;;;;;;12.23;9.27;;;;;;;0.11;100.00;97625.16;5050890;27;103087;-60
2022/03/22 02:20:47;;;;;;;10.27;8.63;;;;;;;0.11;100.00;97622.53;5051189;27;101841;-59
2022/03/22 02:23:19;;;;;;;10.43;8.43;;;;;;;-0.28;100.00;97626.53;5050157;27;105599;-60
2022/03/22 02:25:49;;;;;;;10.53;8.60;;;;;;;-0.16;100.00;97620.91;5049518;27;105015;-59
2022/03/22 02:28:17;;;;;;;9.63;7.80;;;;;;;-0.04;100.00;97618.84;5033355;27;101809;-59
2022/03/22 02:30:45;;;;;;;12.60;9.17;;;;;;;-0.16;100.00;97614.88;5052447;27;105095;-59
2022/03/22 02:33:13;;;;;;;10.97;8.70;;;;;;;-0.28;100.00;97605.63;5050001;27;101825;-59
2022/03/22 02:35:41;;;;;;;12.40;8.83;;;;;;;-0.40;100.00;97611.28;5049740;27;105726;-59
2022/03/22 02:38:09;;;;;;;10.23;8.27;;;;;;;-0.38;100.00;97618.00;5049103;27;105337;-59
2022/03/22 02:40:37;;;;;;;10.13;8.40;;;;;;;-0.24;100.00;97617.41;5049515;27;101941;-59
2022/03/22 02:43:05;;;;;;;9.23;8.07;;;;;;;-0.14;100.00;97610.31;5049974;27;105034;-60
2022/03/22 02:45:32;;;;;;;12.70;8.90;;;;;;;-0.27;100.00;97612.50;5049035;27;105462;-59
2022/03/22 02:47:59;;;;;;;11.60;8.97;;;;;;;-0.33;100.00;97615.72;5049599;27;101907;-59
2022/03/22 02:50:28;;;;;;;10.73;8.80;;;;;;;-0.23;100.00;97616.44;5049448;27;105528;-59
2022/03/22 02:52:55;;;;;;;13.10;8.73;;;;;;;-0.08;100.00;97609.69;5052197;27;105769;-59
2022/03/22 02:55:22;;;;;;;10.50;8.37;;;;;;;-0.02;100.00;97616.91;5049234;27;105246;-59
2022/03/22 02:57:49;;;;;;;9.47;7.73;;;;;;;-0.10;100.00;97614.25;5049007;27;105298;-59
2022/03/22 03:00:20;;;;;;;12.30;9.67;;;;;;;-0.08;100.00;97612.28;5049270;27;101963;-59
2022/03/22 03:02:49;;;;;;;10.13;8.60;;;;;;;-0.13;100.00;97615.38;5049487;27;104049;-59
2022/03/22 03:05:17;;;;;;;11.57;8.60;;;;;;;-0.12;100.00;97616.19;5049916;27;104194;-59
2022/03/22 03:07:44;;;;;;;10.93;8.67;;;;;;;-0.15;100.00;97617.31;5049425;27;102022;-59
2022/03/22 03:10:11;;;;;;;13.20;8.83;;;;;;;-0.37;100.00;97622.25;5049232;27;104845;-59
2022/03/22 03:12:38;;;;;;;10.83;8.57;;;;;;;-0.43;100.00;97622.03;5048586;27;103896;-59
2022/03/22 03:15:08;;;;;;;11.33;8.47;;;;;;;-0.37;100.00;97623.03;5052681;27;101752;-59
2022/03/22 03:17:37;;;;;;;11.53;7.80;;;;;;;-0.73;100.00;97612.81;5048461;27;105902;-58
2022/03/22 03:20:05;;;;;;;11.20;8.03;;;;;;;-0.83;100.00;97614.69;5050506;27;102419;-59
2022/03/22 03:22:32;;;;;;;12.33;9.23;;;;;;;-0.70;100.00;97625.56;5050498;27;102945;-59
2022/03/22 03:25:00;;;;;;;11.40;8.57;;;;;;;-0.69;100.00;97626.38;5049904;27;101828;-59
2022/03/22 03:27:26;;;;;;;11.17;8.97;;;;;;;-0.63;100.00;97621.38;5050496;27;101856;-59
2022/03/22 03:29:54;;;;;;;13.53;8.87;;;;;;;-0.57;100.00;97620.78;5050434;27;102246;-59
2022/03/22 03:32:21;;;;;;;11.67;8.40;;;;;;;-0.57;100.00;97630.41;5049899;27;102769;-59
2022/03/22 03:34:49;;;;;;;17.50;9.40;;;;;;;-0.42;100.00;97633.13;5052111;27;101995;-59
2022/03/22 03:37:17;;;;;;;10.80;8.63;;;;;;;-0.34;100.00;97627.16;5048302;27;105554;-59
2022/03/22 03:39:45;;;;;;;11.50;9.17;;;;;;;-0.39;100.00;97628.59;5050345;27;101835;-59
2022/03/22 03:42:12;;;;;;;11.60;8.43;;;;;;;-0.41;100.00;97631.34;5050467;27;102537;-59
2022/03/22 03:47:24;;;;;;;11.53;9.10;;;;;;;-0.55;100.00;97636.31;5050156;27;101986;-59
2022/03/22 03:49:55;;;;;;;11.27;8.97;;;;;;;-0.42;100.00;97633.13;5048819;27;104922;-59
2022/03/22 03:52:23;;;;;;;10.80;8.87;;;;;;;-0.36;100.00;97636.94;5048004;27;105470;-59
2022/03/22 03:54:52;;;;;;;12.77;8.20;;;;;;;-0.33;100.00;97638.44;5048562;27;102248;-59
2022/03/22 03:57:19;;;;;;;10.47;8.10;;;;;;;-0.66;100.00;97632.13;5052965;27;102465;-59
2022/03/22 03:59:47;;;;;;;13.43;8.37;;;;;;;-0.66;100.00;97637.34;5048625;27;101867;-60
2022/03/22 04:02:14;;;;;;;13.43;8.17;;;;;;;-0.54;100.00;97644.00;5048621;27;105678;-59
2022/03/22 04:04:42;;;;;;;12.37;8.93;;;;;;;-0.78;100.00;97638.56;5047817;27;105789;-59
2022/03/22 04:07:12;;;;;;;11.10;9.13;;;;;;;-0.61;100.00;97634.31;5048615;27;101973;-59
2022/03/22 04:09:40;;;;;;;11.67;8.70;;;;;;;-0.48;100.00;97634.72;5049934;27;104119;-59
2022/03/22 04:12:08;;;;;;;11.53;9.00;;;;;;;-0.48;100.00;97640.78;5049094;27;103113;-59
2022/03/22 04:14:35;;;;;;;11.83;8.47;;;;;;;-0.84;100.00;97635.72;5048533;27;101850;-59
2022/03/22 04:17:02;;;;;;;10.03;8.50;;;;;;;-0.73;100.00;97636.31;5048304;27;105734;-59
2022/03/22 04:19:31;;;;;;;9.93;8.40;;;;;;;-0.65;100.00;97636.41;5052381;27;102621;-59
2022/03/22 04:21:58;;;;;;;11.10;8.70;;;;;;;-0.81;100.00;97644.09;5048332;27;105695;-59
2022/03/22 04:24:27;;;;;;;9.57;8.13;;;;;;;-0.96;100.00;97629.91;5047752;27;105565;-59
2022/03/22 04:26:55;;;;;;;11.97;8.73;;;;;;;-0.90;100.00;97634.53;5048395;27;101957;-59
2022/03/22 04:34:52;;;;;;;12.20;8.57;;;;;;;-1.25;100.00;97634.50;5048278;27;101859;-59
2022/03/22 04:37:19;;;;;;;11.87;8.83;;;;;;;-1.16;100.00;97638.84;5051560;27;105493;-59
2022/03/22 04:39:48;;;;;;;10.37;8.40;;;;;;;-1.23;100.00;97642.19;5051118;27;103973;-59
2022/03/22 04:42:15;;;;;;;14.27;9.07;;;;;;;-1.47;100.00;97650.56;5055119;27;101900;-59
2022/03/22 04:44:43;;;;;;;11.53;8.50;;;;;;;-1.45;100.00;97643.41;5051063;27;104236;-59
2022/03/22 04:47:10;;;;;;;14.37;9.67;;;;;;;-1.40;100.00;97646.41;5051412;27;101932;-59
2022/03/22 04:49:38;;;;;;;12.43;9.40;;;;;;;-1.39;100.00;97642.00;5051513;27;105320;-59
2022/03/22 04:57:36;;;;;;;11.77;8.83;;;;;;;-1.79;100.00;97655.38;5053125;27;102504;-59
2022/03/22 05:00:05;;;;;;;14.50;9.03;;;;;;;-1.68;100.00;97660.41;5051863;27;103116;-59
2022/03/22 05:02:32;;;;;;;12.53;8.83;;;;;;;-1.68;100.00;97662.19;5051436;27;101823;-59
2022/03/22 05:05:00;;;;;;;13.30;9.10;;;;;;;-1.83;100.00;97655.81;5055574;27;102318;-59
2022/03/22 05:07:27;;;;;;;12.13;9.93;;;;;;;-1.70;100.00;97659.72;5052924;27;102044;-59
2022/03/22 05:09:56;;;;;;;11.57;8.87;;;;;;;-1.86;100.00;97659.50;5051277;27;104967;-59
2022/03/22 05:12:23;;;;;;;12.07;9.00;;;;;;;-1.67;100.00;97663.84;5050312;27;106080;-59
2022/03/22 05:14:51;;;;;;;10.70;8.77;;;;;;;-1.72;100.00;97672.09;5051002;27;101863;-59
2022/03/22 05:17:21;;;;;;;9.67;8.17;;;;;;;-1.74;100.00;97668.81;5050559;27;102952;-59
2022/03/22 05:19:49;;;;;;;11.63;8.60;;;;;;;-1.65;100.00;97672.34;5050407;27;105236;-59
2022/03/22 05:22:16;;;;;;;17.87;8.90;;;;;;;-1.51;100.00;97670.09;5052596;27;102208;-59
2022/03/22 05:24:43;;;;;;;12.67;9.90;;;;;;;-1.34;100.00;97676.31;5050712;27;105307;-59
2022/03/22 05:27:12;;;;;;;11.57;9.03;;;;;;;-1.19;100.00;97677.47;5053576;27;101923;-59
2022/03/22 05:29:39;;;;;;;12.20;8.80;;;;;;;-1.23;100.00;97682.16;5050692;27;103475;-59
2022/03/22 05:32:07;;;;;;;12.13;9.47;;;;;;;-1.20;100.00;97678.44;5049922;27;105886;-59
2022/03/22 05:34:34;;;;;;;12.20;9.60;;;;;;;-1.36;100.00;97673.03;5050596;27;102244;-59
2022/03/22 05:37:00;;;;;;;14.70;9.47;;;;;;;-1.23;100.00;97674.31;5052124;27;102286;-59
2022/03/22 05:39:27;;;;;;;12.23;9.37;;;;;;;-1.23;100.00;97679.53;5050118;27;105850;-59
2022/03/22 05:41:56;;;;;;;11.10;9.60;;;;;;;-1.35;100.00;97679.88;5050526;27;101968;-59
2022/03/22 05:44:24;;;;;;;11.17;8.83;;;;;;;-1.07;100.00;97682.34;5052156;27;102500;-59
2022/03/22 05:46:51;;;;;;;10.60;8.50;;;;;;;-0.93;100.00;97687.03;5045820;27;105086;-60
2022/03/22 05:49:18;;;;;;;13.20;9.20;;;;;;;-0.84;100.00;97688.75;5041600;27;103695;-59
2022/03/22 05:51:46;;;;;;;11.03;8.90;;;;;;;-0.68;100.00;97686.31;5030239;27;103146;-59
2022/03/22 05:54:13;;;;;;;13.53;9.07;;;;;;;-0.54;100.00;97691.03;5031180;27;101741;-59
2022/03/22 05:56:40;;;;;;;14.87;9.80;;;;;;;-0.57;100.00;97682.63;5030925;28;102870;-60
2022/03/22 05:59:06;;;;;;;12.20;9.00;;;;;;;-0.55;100.00;97685.94;5030722;27;103062;-60
2022/03/22 06:01:35;;;;;;;11.37;8.93;;;;;;;-0.50;100.00;97683.69;5031631;27;101778;-60
2022/03/22 06:04:02;;;;;;;12.97;9.10;;;;;;;-0.27;100.00;97691.72;5031634;28;102914;-60
2022/03/22 06:06:29;;;;;;;11.93;9.40;;;;;;;-0.24;100.00;97684.56;5030765;28;103131;-60
2022/03/22 06:08:56;;;;;;;14.77;9.27;;;;;;;-0.40;100.00;97685.25;5016521;28;102138;-60
2022/03/22 06:11:23;;;;;;;14.37;9.77;;;;;;;-0.22;100.00;97688.66;5029405;28;105273;-60
2022/03/22 06:13:50;;;;;;;12.50;9.23;;;;;;;-0.13;100.00;97680.72;5031236;27;102105;-60
2022/03/22 06:16:18;;;;;;;12.00;9.13;;;;;;;0.02;100.00;97689.63;5029884;28;103601;-60
2022/03/22 06:18:46;;;;;;;11.03;8.67;;;;;;;0.24;100.00;97683.88;5030517;27;102965;-60
2022/03/22 06:21:14;;;;;;;13.47;9.53;;;;;;;0.30;100.00;97691.16;5029305;28;102030;-60
2022/03/22 06:23:40;;;;;;;11.10;9.83;;;;;;;0.48;100.00;97688.44;5029824;28;105504;-60
2022/03/22 06:26:07;;;;;;;13.57;9.27;;;;;;;0.62;100.00;97687.88;5029157;28;105350;-60
2022/03/22 06:28:35;;;;;;;13.30;8.80;;;;;;;0.88;100.00;97696.47;5029528;28;102107;-60
2022/03/22 06:31:01;;;;;;;11.57;9.30;;;;;;;1.09;100.00;97694.25;5032351;28;106335;-60
2022/03/22 06:33:28;;;;;;;11.33;9.00;;;;;;;1.12;100.00;97696.53;5029556;28;102105;-60
2022/03/22 06:35:57;;;;;;;18.33;10.20;;;;;;;1.33;100.00;97691.69;5029519;28;105672;-60
2022/03/22 06:38:24;;;;;;;11.97;9.77;;;;;;;1.47;100.00;97696.25;5029197;28;102789;-60
2022/03/22 06:40:53;;;;;;;10.70;9.10;;;;;;;1.67;100.00;97695.81;5030948;27;101789;-60
2022/03/22 06:43:21;;;;;;;13.80;9.07;;;;;;;1.94;100.00;97697.28;5030832;27;102875;-60
2022/03/22 06:45:48;;;;;;;15.87;10.20;;;;;;;1.95;100.00;97704.16;5030392;28;103137;-60
2022/03/22 06:48:17;;;;;;;15.27;9.40;;;;;;;1.87;100.00;97696.31;5029343;27;101918;-60
2022/03/22 06:50:47;;;;;;;12.90;9.57;;;;;;;2.04;100.00;97701.38;5029026;28;103894;-59
2022/03/22 06:53:15;;;;;;;12.07;8.03;;;;;;;2.22;100.00;97702.00;5033696;28;102649;-60
2022/03/22 06:55:43;;;;;;;12.30;8.63;;;;;;;2.66;100.00;97710.25;5030283;28;102452;-60
2022/03/22 06:58:11;;;;;;;12.87;8.43;;;;;;;2.77;100.00;97720.41;5027699;28;105861;-60
2022/03/22 07:00:39;;;;;;;12.07;8.37;;;;;;;2.82;100.00;97715.44;5030731;27;101934;-60
2022/03/22 07:03:06;;;;;;;14.10;8.67;;;;;;;3.08;100.00;97716.84;5029276;28;105215;-60
2022/03/22 07:05:33;;;;;;;12.00;9.13;;;;;;;3.19;100.00;97705.09;5030006;27;102554;-60
2022/03/22 07:08:00;;;;;;;15.20;8.97;;;;;;;3.27;100.00;97715.59;5030613;28;101840;-60
2022/03/22 07:10:31;;;;;;;10.40;8.90;;;;;;;3.46;100.00;97717.78;5028810;28;105317;-60
2022/03/22 07:13:01;;;;;;;13.33;9.10;;;;;;;3.46;100.00;97715.97;5028186;28;105393;-60
2022/03/22 07:15:30;;;;;;;15.10;9.00;;;;;;;3.72;100.00;97711.16;5032499;28;102139;-60
2022/03/22 07:18:00;;;;;;;12.50;9.30;;;;;;;3.92;100.00;97720.25;5028334;28;105374;-60
2022/03/22 07:20:27;;;;;;;14.10;9.43;;;;;;;4.01;100.00;97713.09;5030025;27;102022;-60
2022/03/22 07:22:54;;;;;;;10.87;9.20;;;;;;;4.01;100.00;97718.34;5030555;28;102442;-60
2022/03/22 07:25:23;;;;;;;11.00;8.63;;;;;;;4.28;100.00;97713.34;5029602;28;102575;-60
2022/03/22 07:27:52;;;;;;;11.03;8.37;;;;;;;4.55;100.00;97711.94;5028710;28;101877;-60
2022/03/22 07:30:19;;;;;;;14.13;8.67;;;;;;;4.57;100.00;97715.19;5028899;28;105567;-60
2022/03/22 07:32:47;;;;;;;11.00;8.30;;;;;;;4.75;100.00;97718.31;5027675;28;105496;-60
2022/03/22 07:35:17;;;;;;;10.00;7.90;;;;;;;4.98;100.00;97716.38;5032188;28;102256;-60
2022/03/22 07:37:44;;;;;;;11.90;8.10;;;;;;;5.34;100.00;97717.25;5028223;28;106221;-60
2022/03/22 07:40:13;;;;;;;12.77;7.80;;;;;;;5.63;99.13;97720.59;5030249;27;101822;-60
2022/03/22 07:42:40;;;;;;;9.17;7.87;;;;;;;5.92;96.57;97717.06;5029792;28;102902;-59
2022/03/22 07:45:11;;;;;;;9.40;6.97;;;;;;;5.94;95.26;97715.88;5029216;28;102562;-59
2022/03/22 07:47:41;;;;;;;9.57;8.03;;;;;;;5.92;86.16;97722.34;5030031;28;101718;-60
2022/03/22 07:53:01;;;;;;;10.57;7.97;;;;;;;6.26;89.65;97719.81;5029034;27;103050;-59
2022/03/22 07:55:30;;;;;;;11.43;8.23;;;;;;;6.15;87.62;97717.69;5029675;27;101968;-59
2022/03/22 07:57:58;;;;;;;12.67;8.57;;;;;;;6.53;90.23;97724.28;5032569;27;102372;-59
2022/03/22 08:00:28;;;;;;;11.37;8.50;;;;;;;6.63;87.56;97716.84;5028280;28;101821;-59
2022/03/22 08:02:56;;;;;;;9.73;8.07;;;;;;;6.93;88.64;97718.25;5029954;27;102957;-59
2022/03/22 08:05:24;;;;;;;14.07;8.07;;;;;;;6.99;88.86;97717.47;5029184;27;102616;-59
2022/03/22 08:07:53;;;;;;;12.33;8.33;;;;;;;6.89;85.85;97714.34;5029823;27;101943;-59
2022/03/22 08:10:21;;;;;;;11.10;7.70;;;;;;;6.74;89.30;97713.66;5029935;27;102320;-59
2022/03/22 08:12:48;;;;;;;10.57;7.77;;;;;;;6.40;92.77;97706.53;5032438;27;101760;-60
2022/03/22 08:15:16;;;;;;;9.97;7.80;;;;;;;6.49;90.08;97709.84;5033287;28;101638;-60
2022/03/22 08:17:45;;;;;;;9.30;7.03;;;;;;;6.68;84.05;97709.97;5033163;27;102963;-59
2022/03/22 08:20:14;;;;;;;11.17;7.47;;;;;;;6.92;81.59;97709.50;5035880;28;103193;-59
2022/03/22 08:22:50;;;;;;;9.30;7.50;;;;;;;7.30;81.57;97705.41;5031375;28;105434;-59
2022/03/22 08:25:24;;;;;;;8.87;7.50;;;;;;;7.45;76.60;97702.59;5031023;28;105060;-59
2022/03/22 08:27:51;;;;;;;8.30;7.10;;;;;;;7.87;78.11;97702.31;5033139;27;101748;-60
2022/03/22 08:30:21;;;;;;;7.93;6.93;;;;;;;8.10;76.16;97702.72;5033082;28;102319;-59
2022/03/22 08:32:51;;;;;;;10.57;7.27;;;;;;;8.37;74.24;97701.75;5031630;27;103254;-60
2022/03/22 08:35:18;;;;;;;8.93;6.97;;;;;;;7.91;70.55;97700.88;5032800;28;101817;-59
2022/03/22 08:37:45;;;;;;;9.90;7.03;;;;;;;8.49;70.32;97702.75;5032796;28;102963;-59
2022/03/22 08:40:14;;;;;;;8.33;6.63;;;;;;;8.35;68.45;97701.16;5032114;28;102854;-59
2022/03/22 08:42:44;;;;;;;8.40;7.23;;;;;;;8.87;70.10;97706.38;5034816;28;101959;-59
2022/03/22 08:45:13;;;;;;;9.47;7.43;;;;;;;8.26;69.25;97689.13;5030528;28;105960;-59
2022/03/22 08:47:41;;;;;;;8.33;7.47;;;;;;;8.75;68.63;97689.47;5032440;28;102282;-59
2022/03/22 08:50:13;;;;;;;10.07;6.90;;;;;;;8.55;68.47;97694.81;5032603;28;103055;-58
2022/03/22 08:52:40;;;;;;;7.80;6.70;;;;;;;8.83;65.87;97691.91;5032163;27;102478;-60
2022/03/22 08:55:11;;;;;;;10.63;7.20;;;;;;;9.12;65.17;97688.75;5032187;28;101819;-60
2022/03/22 08:57:40;;;;;;;9.67;7.57;;;;;;;8.58;63.16;97690.94;5030903;28;105682;-59
2022/03/22 09:00:10;;;;;;;8.33;7.40;;;;;;;8.75;62.20;97690.31;5030415;28;105559;-60
2022/03/22 09:02:37;;;;;;;8.67;7.17;;;;;;;9.24;64.39;97687.09;5032770;27;101696;-59
2022/03/22 09:07:51;;;;;;;8.57;7.43;;;;;;;10.03;60.80;97682.97;5032657;27;101872;-59
2022/03/22 09:10:19;;;;;;;8.63;7.67;;;;;;;9.30;58.60;97687.06;5032093;27;102352;-59
2022/03/22 09:12:46;;;;;;;9.00;7.20;;;;;;;10.04;57.44;97684.63;5030448;28;105937;-60
2022/03/22 09:15:14;;;;;;;8.40;7.20;;;;;;;10.35;55.63;97681.94;5030496;28;102054;-59
2022/03/22 09:17:41;;;;;;;9.17;7.03;;;;;;;9.88;55.02;97682.47;5032497;27;102286;-59
2022/03/22 09:20:12;;;;;;;10.33;7.10;;;;;;;9.95;53.04;97684.06;5031571;28;102575;-59
2022/03/22 09:22:38;;;;;;;10.07;7.20;;;;;;;10.04;55.13;97679.31;5032000;27;101748;-60
2022/03/22 09:25:09;;;;;;;12.03;7.13;;;;;;;10.02;54.56;97681.31;5031788;27;102317;-59
2022/03/22 09:27:37;;;;;;;8.23;7.37;;;;;;;10.51;54.45;97681.38;5034787;27;103104;-60
2022/03/22 09:30:04;;;;;;;9.30;6.87;;;;;;;11.12;54.03;97685.66;5030494;28;103607;-59
2022/03/22 09:32:33;;;;;;;9.37;7.47;;;;;;;11.38;50.71;97689.84;5030035;28;105431;-59
2022/03/22 09:35:01;;;;;;;10.13;7.37;;;;;;;11.26;48.06;97681.00;5031915;28;102191;-59
2022/03/22 09:37:28;;;;;;;10.33;7.63;;;;;;;11.67;51.45;97678.47;5031711;27;102294;-59
2022/03/22 09:39:57;;;;;;;8.47;7.60;;;;;;;12.09;49.89;97677.44;5031254;28;102956;-59
2022/03/22 09:42:27;;;;;;;9.93;7.27;;;;;;;11.96;47.34;97674.97;5031865;28;101829;-59
2022/03/22 09:44:55;;;;;;;8.20;7.00;;;;;;;12.03;46.13;97673.00;5031978;28;102498;-60
2022/03/22 09:47:22;;;;;;;9.77;7.23;;;;;;;11.89;47.45;97672.38;5034022;27;102972;-59
2022/03/22 09:49:50;;;;;;;9.40;7.87;;;;;;;11.43;46.33;97672.19;5030271;28;105037;-59
2022/03/22 09:52:18;;;;;;;7.70;6.90;;;;;;;11.58;46.74;97669.13;5029330;27;104175;-59
2022/03/22 09:54:46;;;;;;;9.03;7.17;;;;;;;11.88;47.75;97656.66;5031116;28;102052;-59
2022/03/22 09:57:13;;;;;;;9.63;7.53;;;;;;;12.09;46.73;97661.44;5030022;28;105661;-59
2022/03/22 09:59:43;;;;;;;10.63;8.00;;;;;;;12.51;45.83;97663.00;5029558;28;104956;-59
2022/03/22 10:02:10;;;;;;;8.07;7.27;;;;;;;12.56;45.60;97657.78;5030092;28;101917;-59
2022/03/22 10:04:38;;;;;;;9.37;7.30;;;;;;;12.07;45.42;97659.00;5029888;28;104844;-59
2022/03/22 10:07:06;;;;;;;9.97;6.90;;;;;;;12.38;44.25;97660.56;5029195;28;105721;-59
2022/03/22 10:09:36;;;;;;;8.97;7.00;;;;;;;12.07;43.76;97658.19;5033366;28;102037;-59
2022/03/22 10:12:03;;;;;;;7.87;7.07;;;;;;;12.74;44.16;97655.00;5028946;28;105625;-59
2022/03/22 10:14:36;;;;;;;8.00;7.20;;;;;;;12.45;44.11;97656.75;5029856;28;101877;-59
2022/03/22 10:17:12;;;;;;;9.97;7.30;;;;;;;11.91;46.37;97654.34;5029506;28;105342;-59
2022/03/22 10:19:48;;;;;;;8.17;6.90;;;;;;;12.82;45.02;97654.66;5029222;28;105276;-59
2022/03/22 10:22:16;;;;;;;9.13;7.50;;;;;;;13.51;46.21;97651.88;5029672;28;101989;-59
2022/03/22 10:24:45;;;;;;;8.57;7.30;;;;;;;13.22;47.50;97647.53;5029680;28;105178;-59
2022/03/22 10:27:24;;;;;;;9.03;7.80;;;;;;;13.58;44.21;97641.84;5028831;28;105358;-59
2022/03/22 10:29:51;;;;;;;8.47;7.63;;;;;;;13.32;44.88;97642.38;5030849;28;101985;-59
2022/03/22 10:32:32;;;;;;;10.43;7.93;;;;;;;13.49;46.84;97637.91;5033604;27;102396;-59
2022/03/22 10:35:10;;;;;;;9.00;7.43;;;;;;;14.26;45.10;97637.19;5028889;28;102110;-59
2022/03/22 10:37:37;;;;;;;9.57;7.27;;;;;;;14.64;42.38;97634.56;5029423;28;105142;-60
2022/03/22 10:40:20;;;;;;;13.33;7.90;;;;;;;14.69;42.85;97634.66;5028761;28;105720;-59
2022/03/22 10:42:48;;;;;;;11.50;7.90;;;;;;;14.22;42.65;97634.19;5029475;28;101914;-59
2022/03/22 10:45:14;;;;;;;8.47;7.20;;;;;;;14.67;43.70;97636.78;5030965;28;102615;-59
2022/03/22 10:47:43;;;;;;;9.30;7.53;;;;;;;14.92;40.77;97629.91;5028392;28;105001;-59
2022/03/22 10:50:10;;;;;;;8.03;7.23;;;;;;;15.54;41.31;97627.75;5029028;28;101838;-60
2022/03/22 10:52:47;;;;;;;8.13;7.33;;;;;;;15.81;40.55;97626.69;5029341;28;105625;-59
2022/03/22 10:55:19;;;;;;;8.47;6.97;;;;;;;15.98;40.03;97618.56;5031673;28;105203;-60
2022/03/22 10:57:49;;;;;;;12.47;7.60;;;;;;;16.37;39.51;97618.09;5029138;28;105742;-60
2022/03/22 11:00:17;;;;;;;7.63;6.77;;;;;;;15.83;37.48;97613.88;5028632;28;105673;-60
2022/03/22 11:02:49;;;;;;;7.60;6.90;;;;;;;15.60;39.95;97616.81;5028882;28;101806;-59
2022/03/22 11:05:19;;;;;;;7.30;6.60;;;;;;;15.40;34.82;97618.47;5030389;28;103870;-59
2022/03/22 11:07:46;;;;;;;9.87;7.17;;;;;;;15.71;36.99;97613.22;5028426;28;105862;-59
2022/03/22 11:10:14;;;;;;;8.30;6.97;;;;;;;14.69;36.14;97607.88;5029035;28;101830;-59
2022/03/22 11:12:42;;;;;;;7.23;6.27;;;;;;;14.28;34.49;97611.81;5029041;28;105398;-59
2022/03/22 11:15:10;;;;;;;9.73;7.07;;;;;;;15.13;35.30;97610.34;5028097;28;105848;-59
2022/03/22 11:17:38;;;;;;;7.53;6.83;;;;;;;14.00;35.39;97605.72;5032512;28;102454;-59
2022/03/22 11:20:12;;;;;;;7.60;6.67;;;;;;;14.51;36.34;97606.28;5028067;28;103804;-59
2022/03/22 11:22:47;;;;;;;7.13;6.03;;;;;;;15.75;34.55;97598.22;5028887;28;101784;-59
2022/03/22 11:25:18;;;;;;;6.97;6.27;;;;;;;16.20;33.27;97597.81;5030391;27;102179;-60
2022/03/22 11:27:56;;;;;;;7.37;6.53;;;;;;;15.71;33.67;97597.13;5028163;28;103917;-60
2022/03/22 11:30:23;;;;;;;6.90;6.30;;;;;;;15.39;34.68;97595.41;5028508;28;101787;-60
2022/03/22 11:35:46;;;;;;;8.10;6.13;;;;;;;16.30;32.51;97590.63;5028055;28;105641;-60
2022/03/22 11:38:14;;;;;;;7.67;6.87;;;;;;;16.62;32.64;97587.97;5028604;28;101928;-59
2022/03/22 11:43:43;;;;;;;8.17;6.40;;;;;;;17.26;33.27;97586.66;5028733;28;101973;-59
2022/03/22 11:46:10;;;;;;;9.23;7.40;;;;;;;17.11;32.41;97582.03;5033164;27;102353;-59
2022/03/22 11:48:40;;;;;;;7.47;6.30;;;;;;;15.72;33.11;97576.44;5031474;28;106716;-60
2022/03/22 11:51:10;;;;;;;6.90;6.30;;;;;;;16.84;32.44;97585.94;5032265;28;101910;-59